sensor_id;sensor_type;location;lat;lon;timestamp;pressure;altitude;pressure_sealevel;temperature;humidity
32456;BME280;18912;43.270;27.942;2023-02-28T00:01:02;98993.34;;;12.85;58.90
32456;BME280;18912;43.270;27.942;2023-02-28T00:03:28;98997.63;;;13.00;58.57
32456;BME280;18912;43.270;27.942;2023-02-28T00:05:53;98983.97;;;13.22;57.98
32456;BME280;18912;43.270;27.942;2023-02-28T00:08:19;98984.34;;;13.12;58.21
32456;BME280;18912;43.270;27.942;2023-02-28T00:10:44;99002.53;;;12.84;58.91
32456;BME280;18912;43.270;27.942;2023-02-28T00:13:10;99010.56;;;12.98;58.53
32456;BME280;18912;43.270;27.942;2023-02-28T00:15:36;99006.72;;;13.21;58.21
32456;BME280;18912;43.270;27.942;2023-02-28T00:18:02;98998.63;;;13.34;57.56
32456;BME280;18912;43.270;27.942;2023-02-28T00:20:28;98996.34;;;13.37;57.27
32456;BME280;18912;43.270;27.942;2023-02-28T00:22:55;99012.41;;;13.32;57.53
32456;BME280;18912;43.270;27.942;2023-02-28T00:25:22;99023.63;;;13.16;57.81
32456;BME280;18912;43.270;27.942;2023-02-28T00:27:48;99022.19;;;13.20;57.72
32456;BME280;18912;43.270;27.942;2023-02-28T00:30:19;99011.38;;;13.33;57.45
32456;BME280;18912;43.270;27.942;2023-02-28T00:32:44;99005.00;;;13.06;58.21
32456;BME280;18912;43.270;27.942;2023-02-28T00:35:11;99000.59;;;13.05;58.00
32456;BME280;18912;43.270;27.942;2023-02-28T00:37:37;99011.19;;;13.00;57.92
32456;BME280;18912;43.270;27.942;2023-02-28T00:40:03;99010.91;;;12.89;58.58
32456;BME280;18912;43.270;27.942;2023-02-28T00:42:32;99003.63;;;12.96;58.14
32456;BME280;18912;43.270;27.942;2023-02-28T00:44:58;99006.41;;;13.02;57.95
32456;BME280;18912;43.270;27.942;2023-02-28T00:47:24;98998.78;;;12.85;58.71
32456;BME280;18912;43.270;27.942;2023-02-28T00:49:49;98992.50;;;12.78;58.26
32456;BME280;18912;43.270;27.942;2023-02-28T00:52:15;98996.34;;;12.62;59.13
32456;BME280;18912;43.270;27.942;2023-02-28T00:54:40;99006.06;;;12.84;58.75
32456;BME280;18912;43.270;27.942;2023-02-28T00:57:05;99004.63;;;13.16;57.92
32456;BME280;18912;43.270;27.942;2023-02-28T00:59:31;99010.84;;;12.82;58.92
32456;BME280;18912;43.270;27.942;2023-02-28T01:01:56;98999.69;;;12.98;58.03
32456;BME280;18912;43.270;27.942;2023-02-28T01:04:22;99008.97;;;13.10;57.39
32456;BME280;18912;43.270;27.942;2023-02-28T01:06:47;98995.00;;;13.13;57.42
32456;BME280;18912;43.270;27.942;2023-02-28T01:09:13;98989.63;;;12.92;57.58
32456;BME280;18912;43.270;27.942;2023-02-28T01:11:39;99002.84;;;12.68;58.37
32456;BME280;18912;43.270;27.942;2023-02-28T01:14:06;99001.63;;;13.04;57.78
32456;BME280;18912;43.270;27.942;2023-02-28T01:16:32;99003.38;;;12.84;58.11
32456;BME280;18912;43.270;27.942;2023-02-28T01:18:58;99030.81;;;12.68;58.98
32456;BME280;18912;43.270;27.942;2023-02-28T01:21:23;99040.84;;;13.02;58.22
32456;BME280;18912;43.270;27.942;2023-02-28T01:23:49;99048.06;;;12.88;58.32
32456;BME280;18912;43.270;27.942;2023-02-28T01:26:22;99045.97;;;12.90;58.38
32456;BME280;18912;43.270;27.942;2023-02-28T01:28:49;99032.03;;;12.93;58.18
32456;BME280;18912;43.270;27.942;2023-02-28T01:31:15;99028.56;;;13.06;57.84
32456;BME280;18912;43.270;27.942;2023-02-28T01:33:41;99025.28;;;13.10;57.23
32456;BME280;18912;43.270;27.942;2023-02-28T01:36:09;99034.19;;;12.70;58.25
32456;BME280;18912;43.270;27.942;2023-02-28T01:38:35;99041.47;;;12.70;58.30
32456;BME280;18912;43.270;27.942;2023-02-28T01:41:01;99049.78;;;12.96;57.66
32456;BME280;18912;43.270;27.942;2023-02-28T01:43:29;99046.47;;;13.00;57.40
32456;BME280;18912;43.270;27.942;2023-02-28T01:45:56;99034.06;;;12.85;57.67
32456;BME280;18912;43.270;27.942;2023-02-28T01:48:26;99031.84;;;13.01;57.07
32456;BME280;18912;43.270;27.942;2023-02-28T01:50:55;99029.22;;;12.80;57.39
32456;BME280;18912;43.270;27.942;2023-02-28T01:53:36;99030.75;;;12.62;58.27
32456;BME280;18912;43.270;27.942;2023-02-28T01:56:05;99031.63;;;12.62;58.42
32456;BME280;18912;43.270;27.942;2023-02-28T01:58:32;99032.25;;;12.64;58.16
32456;BME280;18912;43.270;27.942;2023-02-28T02:00:58;99025.41;;;12.68;57.83
32456;BME280;18912;43.270;27.942;2023-02-28T02:03:24;99037.19;;;12.82;57.40
32456;BME280;18912;43.270;27.942;2023-02-28T02:05:49;99045.75;;;12.85;57.51
32456;BME280;18912;43.270;27.942;2023-02-28T02:08:23;99063.31;;;12.89;57.69
32456;BME280;18912;43.270;27.942;2023-02-28T02:10:56;99059.81;;;12.95;57.29
32456;BME280;18912;43.270;27.942;2023-02-28T02:13:53;99042.69;;;12.95;57.00
32456;BME280;18912;43.270;27.942;2023-02-28T02:18:59;99037.63;;;12.58;57.69
32456;BME280;18912;43.270;27.942;2023-02-28T02:21:47;99046.75;;;12.50;57.93
32456;BME280;18912;43.270;27.942;2023-02-28T02:27:09;99052.97;;;12.72;57.40
32456;BME280;18912;43.270;27.942;2023-02-28T02:29:52;99056.84;;;12.90;56.63
32456;BME280;18912;43.270;27.942;2023-02-28T02:32:36;99049.81;;;13.02;56.43
32456;BME280;18912;43.270;27.942;2023-02-28T02:35:14;99037.00;;;12.90;56.44
32456;BME280;18912;43.270;27.942;2023-02-28T02:38:07;99043.38;;;12.48;57.10
32456;BME280;18912;43.270;27.942;2023-02-28T02:40:43;99039.97;;;12.67;56.88
32456;BME280;18912;43.270;27.942;2023-02-28T02:43:18;99033.97;;;12.44;57.44
32456;BME280;18912;43.270;27.942;2023-02-28T02:45:47;99036.09;;;12.49;57.59
32456;BME280;18912;43.270;27.942;2023-02-28T02:48:18;99038.25;;;12.87;56.57
32456;BME280;18912;43.270;27.942;2023-02-28T02:50:50;99044.13;;;12.63;56.70
32456;BME280;18912;43.270;27.942;2023-02-28T02:53:18;99058.84;;;12.48;57.20
32456;BME280;18912;43.270;27.942;2023-02-28T02:55:48;99066.50;;;12.44;57.56
32456;BME280;18912;43.270;27.942;2023-02-28T02:58:23;99085.72;;;12.70;56.52
32456;BME280;18912;43.270;27.942;2023-02-28T03:00:56;99067.81;;;12.76;56.14
32456;BME280;18912;43.270;27.942;2023-02-28T03:03:23;99061.41;;;12.83;56.03
32456;BME280;18912;43.270;27.942;2023-02-28T03:05:56;99043.34;;;12.69;56.28
32456;BME280;18912;43.270;27.942;2023-02-28T03:08:22;99057.59;;;12.50;57.09
32456;BME280;18912;43.270;27.942;2023-02-28T03:10:52;99060.41;;;12.63;56.56
32456;BME280;18912;43.270;27.942;2023-02-28T03:16:32;99077.16;;;12.67;56.70
32456;BME280;18912;43.270;27.942;2023-02-28T03:24:34;99098.25;;;12.23;58.16
32456;BME280;18912;43.270;27.942;2023-02-28T03:29:54;99109.19;;;12.57;57.12
32456;BME280;18912;43.270;27.942;2023-02-28T03:32:26;99086.94;;;12.40;57.38
32456;BME280;18912;43.270;27.942;2023-02-28T03:35:00;99083.81;;;12.43;57.41
32456;BME280;18912;43.270;27.942;2023-02-28T03:37:32;99080.66;;;12.40;57.57
32456;BME280;18912;43.270;27.942;2023-02-28T03:40:13;99072.88;;;12.58;57.23
32456;BME280;18912;43.270;27.942;2023-02-28T03:42:43;99073.97;;;12.14;58.18
32456;BME280;18912;43.270;27.942;2023-02-28T03:45:31;99082.84;;;11.66;59.96
32456;BME280;18912;43.270;27.942;2023-02-28T03:48:11;99062.34;;;11.99;59.17
32456;BME280;18912;43.270;27.942;2023-02-28T03:50:47;99054.50;;;11.33;61.02
32456;BME280;18912;43.270;27.942;2023-02-28T03:53:33;99066.03;;;11.42;60.65
32456;BME280;18912;43.270;27.942;2023-02-28T03:56:11;99075.75;;;11.65;60.17
32456;BME280;18912;43.270;27.942;2023-02-28T03:59:00;99082.66;;;11.39;60.53
32456;BME280;18912;43.270;27.942;2023-02-28T04:01:38;99094.75;;;11.57;60.19
32456;BME280;18912;43.270;27.942;2023-02-28T04:04:06;99106.88;;;11.76;59.31
32456;BME280;18912;43.270;27.942;2023-02-28T04:06:33;99093.03;;;11.85;58.75
32456;BME280;18912;43.270;27.942;2023-02-28T04:09:00;99084.38;;;11.40;60.11
32456;BME280;18912;43.270;27.942;2023-02-28T04:11:46;99100.47;;;11.62;59.69
32456;BME280;18912;43.270;27.942;2023-02-28T04:14:14;99095.34;;;11.67;59.35
32456;BME280;18912;43.270;27.942;2023-02-28T04:16:41;99095.28;;;11.96;58.52
32456;BME280;18912;43.270;27.942;2023-02-28T04:19:08;99102.88;;;12.07;58.46
32456;BME280;18912;43.270;27.942;2023-02-28T04:21:40;99105.13;;;11.83;58.64
32456;BME280;18912;43.270;27.942;2023-02-28T04:24:12;99099.38;;;11.57;59.41
32456;BME280;18912;43.270;27.942;2023-02-28T04:26:46;99098.84;;;11.82;58.87
32456;BME280;18912;43.270;27.942;2023-02-28T04:29:14;99106.41;;;11.87;58.77
32456;BME280;18912;43.270;27.942;2023-02-28T04:31:42;99094.53;;;11.88;58.63
32456;BME280;18912;43.270;27.942;2023-02-28T04:34:08;99098.50;;;11.71;59.16
32456;BME280;18912;43.270;27.942;2023-02-28T04:36:33;99096.19;;;11.68;59.36
32456;BME280;18912;43.270;27.942;2023-02-28T04:38:59;99077.75;;;11.78;59.23
32456;BME280;18912;43.270;27.942;2023-02-28T04:41:24;99089.53;;;11.56;59.74
32456;BME280;18912;43.270;27.942;2023-02-28T04:43:51;99086.94;;;11.48;60.36
32456;BME280;18912;43.270;27.942;2023-02-28T04:46:17;99086.09;;;11.62;59.97
32456;BME280;18912;43.270;27.942;2023-02-28T04:48:43;99089.94;;;11.53;60.18
32456;BME280;18912;43.270;27.942;2023-02-28T04:51:11;99079.69;;;11.34;61.00
32456;BME280;18912;43.270;27.942;2023-02-28T04:53:39;99076.03;;;11.26;61.47
32456;BME280;18912;43.270;27.942;2023-02-28T04:56:06;99067.56;;;11.29;61.42
32456;BME280;18912;43.270;27.942;2023-02-28T04:58:32;99073.06;;;10.92;62.96
32456;BME280;18912;43.270;27.942;2023-02-28T05:01:06;99079.06;;;11.02;63.01
32456;BME280;18912;43.270;27.942;2023-02-28T05:03:38;99069.09;;;11.03;63.33
32456;BME280;18912;43.270;27.942;2023-02-28T05:06:06;99077.66;;;11.36;61.92
32456;BME280;18912;43.270;27.942;2023-02-28T05:08:32;99091.94;;;11.29;62.29
32456;BME280;18912;43.270;27.942;2023-02-28T05:10:58;99090.44;;;11.27;62.62
32456;BME280;18912;43.270;27.942;2023-02-28T05:13:26;99093.50;;;11.09;63.05
32456;BME280;18912;43.270;27.942;2023-02-28T05:15:52;99094.81;;;11.13;63.74
32456;BME280;18912;43.270;27.942;2023-02-28T05:18:17;99092.19;;;10.62;65.86
32456;BME280;18912;43.270;27.942;2023-02-28T05:20:43;99088.72;;;10.68;65.90
32456;BME280;18912;43.270;27.942;2023-02-28T05:23:11;99083.88;;;10.63;66.06
32456;BME280;18912;43.270;27.942;2023-02-28T05:25:38;99092.47;;;10.81;66.05
32456;BME280;18912;43.270;27.942;2023-02-28T05:28:04;99103.94;;;10.69;66.56
32456;BME280;18912;43.270;27.942;2023-02-28T05:30:30;99102.75;;;10.71;66.46
32456;BME280;18912;43.270;27.942;2023-02-28T05:32:57;99092.00;;;10.78;66.09
32456;BME280;18912;43.270;27.942;2023-02-28T05:35:23;99102.69;;;10.57;67.28
32456;BME280;18912;43.270;27.942;2023-02-28T05:37:50;99090.03;;;10.57;67.20
32456;BME280;18912;43.270;27.942;2023-02-28T05:40:16;99121.28;;;10.74;67.48
32456;BME280;18912;43.270;27.942;2023-02-28T05:42:41;99131.25;;;10.74;67.27
32456;BME280;18912;43.270;27.942;2023-02-28T05:45:07;99137.19;;;10.55;67.69
32456;BME280;18912;43.270;27.942;2023-02-28T05:47:33;99152.16;;;10.65;68.54
32456;BME280;18912;43.270;27.942;2023-02-28T05:49:59;99161.63;;;10.98;66.98
32456;BME280;18912;43.270;27.942;2023-02-28T05:52:25;99184.03;;;11.21;66.24
32456;BME280;18912;43.270;27.942;2023-02-28T05:54:51;99187.78;;;11.50;65.07
32456;BME280;18912;43.270;27.942;2023-02-28T05:57:16;99200.13;;;11.81;63.88
32456;BME280;18912;43.270;27.942;2023-02-28T05:59:41;99207.47;;;12.02;62.87
32456;BME280;18912;43.270;27.942;2023-02-28T06:02:15;99189.00;;;11.91;62.65
32456;BME280;18912;43.270;27.942;2023-02-28T06:04:40;99195.22;;;11.91;62.84
32456;BME280;18912;43.270;27.942;2023-02-28T06:07:07;99186.38;;;11.83;62.80
32456;BME280;18912;43.270;27.942;2023-02-28T06:09:33;99171.72;;;11.48;63.41
32456;BME280;18912;43.270;27.942;2023-02-28T06:11:59;99179.75;;;11.42;63.99
32456;BME280;18912;43.270;27.942;2023-02-28T06:14:25;99173.69;;;11.10;65.93
32456;BME280;18912;43.270;27.942;2023-02-28T06:16:51;99173.22;;;11.21;64.95
32456;BME280;18912;43.270;27.942;2023-02-28T06:19:16;99161.72;;;11.34;64.99
32456;BME280;18912;43.270;27.942;2023-02-28T06:21:42;99169.94;;;11.41;64.48
32456;BME280;18912;43.270;27.942;2023-02-28T06:24:08;99170.78;;;11.70;63.46
32456;BME280;18912;43.270;27.942;2023-02-28T06:26:33;99182.00;;;11.67;63.49
32456;BME280;18912;43.270;27.942;2023-02-28T06:28:59;99173.88;;;11.23;64.82
32456;BME280;18912;43.270;27.942;2023-02-28T06:31:26;99171.44;;;11.14;65.56
32456;BME280;18912;43.270;27.942;2023-02-28T06:33:51;99173.59;;;11.18;64.92
32456;BME280;18912;43.270;27.942;2023-02-28T06:36:17;99175.94;;;11.51;64.20
32456;BME280;18912;43.270;27.942;2023-02-28T06:38:43;99175.81;;;11.44;64.33
32456;BME280;18912;43.270;27.942;2023-02-28T06:41:09;99171.03;;;11.02;65.82
32456;BME280;18912;43.270;27.942;2023-02-28T06:43:39;99180.09;;;11.09;65.69
32456;BME280;18912;43.270;27.942;2023-02-28T06:46:07;99174.72;;;11.24;65.34
32456;BME280;18912;43.270;27.942;2023-02-28T06:48:34;99171.06;;;11.46;64.66
32456;BME280;18912;43.270;27.942;2023-02-28T06:51:08;99171.44;;;11.28;65.00
32456;BME280;18912;43.270;27.942;2023-02-28T06:53:34;99171.44;;;11.28;64.68
32456;BME280;18912;43.270;27.942;2023-02-28T06:56:03;99177.81;;;11.36;65.02
32456;BME280;18912;43.270;27.942;2023-02-28T06:58:29;99169.97;;;11.26;65.38
32456;BME280;18912;43.270;27.942;2023-02-28T07:00:54;99168.00;;;11.49;64.48
32456;BME280;18912;43.270;27.942;2023-02-28T07:03:21;99168.28;;;11.54;64.25
32456;BME280;18912;43.270;27.942;2023-02-28T07:05:46;99152.28;;;11.59;63.73
32456;BME280;18912;43.270;27.942;2023-02-28T07:08:12;99180.97;;;11.68;64.01
32456;BME280;18912;43.270;27.942;2023-02-28T07:10:38;99177.03;;;11.27;64.89
32456;BME280;18912;43.270;27.942;2023-02-28T07:13:04;99172.47;;;11.27;65.42
32456;BME280;18912;43.270;27.942;2023-02-28T07:15:30;99174.91;;;11.22;65.30
32456;BME280;18912;43.270;27.942;2023-02-28T07:17:56;99172.94;;;11.46;65.08
32456;BME280;18912;43.270;27.942;2023-02-28T07:20:22;99165.81;;;11.88;63.90
32456;BME280;18912;43.270;27.942;2023-02-28T07:22:49;99165.28;;;11.64;64.72
32456;BME280;18912;43.270;27.942;2023-02-28T07:25:24;99175.56;;;11.83;63.89
32456;BME280;18912;43.270;27.942;2023-02-28T07:27:50;99178.16;;;11.91;63.96
32456;BME280;18912;43.270;27.942;2023-02-28T07:30:16;99176.47;;;11.61;64.46
32456;BME280;18912;43.270;27.942;2023-02-28T07:32:41;99172.84;;;11.83;63.79
32456;BME280;18912;43.270;27.942;2023-02-28T07:35:07;99184.09;;;12.01;63.32
32456;BME280;18912;43.270;27.942;2023-02-28T07:37:33;99172.09;;;11.60;63.67
32456;BME280;18912;43.270;27.942;2023-02-28T07:40:05;99181.53;;;11.64;63.08
32456;BME280;18912;43.270;27.942;2023-02-28T07:42:34;99173.56;;;11.04;65.19
32456;BME280;18912;43.270;27.942;2023-02-28T07:45:01;99171.56;;;11.20;65.59
32456;BME280;18912;43.270;27.942;2023-02-28T07:47:26;99174.34;;;11.27;65.33
32456;BME280;18912;43.270;27.942;2023-02-28T07:49:52;99165.59;;;11.40;65.15
32456;BME280;18912;43.270;27.942;2023-02-28T07:52:17;99159.63;;;10.92;66.59
32456;BME280;18912;43.270;27.942;2023-02-28T07:54:43;99153.06;;;11.39;65.18
32456;BME280;18912;43.270;27.942;2023-02-28T07:57:08;99162.59;;;11.20;65.50
32456;BME280;18912;43.270;27.942;2023-02-28T07:59:34;99159.88;;;11.35;64.97
32456;BME280;18912;43.270;27.942;2023-02-28T08:01:59;99158.91;;;10.84;66.53
32456;BME280;18912;43.270;27.942;2023-02-28T08:04:25;99163.66;;;10.82;67.06
32456;BME280;18912;43.270;27.942;2023-02-28T08:06:51;99164.25;;;11.06;66.98
32456;BME280;18912;43.270;27.942;2023-02-28T08:09:21;99170.88;;;11.48;65.70
32456;BME280;18912;43.270;27.942;2023-02-28T08:11:47;99186.28;;;11.76;65.17
32456;BME280;18912;43.270;27.942;2023-02-28T08:14:12;99199.44;;;11.65;64.13
32456;BME280;18912;43.270;27.942;2023-02-28T08:16:37;99211.66;;;11.61;65.00
32456;BME280;18912;43.270;27.942;2023-02-28T08:19:04;99208.28;;;12.17;62.57
32456;BME280;18912;43.270;27.942;2023-02-28T08:21:29;99194.84;;;12.09;61.92
32456;BME280;18912;43.270;27.942;2023-02-28T08:23:54;99205.34;;;11.39;63.88
32456;BME280;18912;43.270;27.942;2023-02-28T08:26:22;99212.72;;;11.89;63.06
32456;BME280;18912;43.270;27.942;2023-02-28T08:28:48;99211.19;;;12.15;61.77
32456;BME280;18912;43.270;27.942;2023-02-28T08:31:15;99206.59;;;12.16;61.57
32456;BME280;18912;43.270;27.942;2023-02-28T08:33:42;99206.47;;;12.24;61.30
32456;BME280;18912;43.270;27.942;2023-02-28T08:36:10;99206.50;;;12.45;61.16
32456;BME280;18912;43.270;27.942;2023-02-28T08:38:36;99197.47;;;12.59;60.54
32456;BME280;18912;43.270;27.942;2023-02-28T08:41:05;99206.16;;;12.34;61.58
32456;BME280;18912;43.270;27.942;2023-02-28T08:43:33;99205.50;;;12.32;61.17
32456;BME280;18912;43.270;27.942;2023-02-28T08:45:58;99216.31;;;12.46;60.49
32456;BME280;18912;43.270;27.942;2023-02-28T08:48:27;99213.75;;;12.38;60.24
32456;BME280;18912;43.270;27.942;2023-02-28T08:51:01;99215.50;;;12.31;60.42
32456;BME280;18912;43.270;27.942;2023-02-28T08:53:26;99219.03;;;12.10;60.89
32456;BME280;18912;43.270;27.942;2023-02-28T08:56:00;99220.16;;;12.37;60.64
32456;BME280;18912;43.270;27.942;2023-02-28T08:58:27;99218.22;;;12.31;60.40
32456;BME280;18912;43.270;27.942;2023-02-28T09:00:52;99216.16;;;11.97;60.82
32456;BME280;18912;43.270;27.942;2023-02-28T09:03:18;99209.25;;;11.95;61.39
32456;BME280;18912;43.270;27.942;2023-02-28T09:05:58;99212.50;;;12.05;60.79
32456;BME280;18912;43.270;27.942;2023-02-28T09:08:26;99215.06;;;12.28;60.33
32456;BME280;18912;43.270;27.942;2023-02-28T09:10:52;99219.63;;;12.27;60.41
32456;BME280;18912;43.270;27.942;2023-02-28T09:13:19;99214.56;;;12.03;61.03
32456;BME280;18912;43.270;27.942;2023-02-28T09:15:45;99210.25;;;12.08;61.03
32456;BME280;18912;43.270;27.942;2023-02-28T09:18:11;99201.25;;;11.72;61.93
32456;BME280;18912;43.270;27.942;2023-02-28T09:20:41;99205.34;;;11.83;61.93
32456;BME280;18912;43.270;27.942;2023-02-28T09:23:08;99200.44;;;11.72;62.30
32456;BME280;18912;43.270;27.942;2023-02-28T09:25:34;99203.75;;;11.88;61.94
32456;BME280;18912;43.270;27.942;2023-02-28T09:28:00;99204.22;;;12.28;60.84
32456;BME280;18912;43.270;27.942;2023-02-28T09:30:26;99207.38;;;12.31;61.21
32456;BME280;18912;43.270;27.942;2023-02-28T09:32:51;99213.91;;;12.58;60.19
32456;BME280;18912;43.270;27.942;2023-02-28T09:35:20;99207.84;;;12.56;59.90
32456;BME280;18912;43.270;27.942;2023-02-28T09:37:47;99206.25;;;12.40;60.98
32456;BME280;18912;43.270;27.942;2023-02-28T09:40:13;99204.25;;;12.13;61.70
32456;BME280;18912;43.270;27.942;2023-02-28T09:42:42;99210.59;;;12.20;61.01
32456;BME280;18912;43.270;27.942;2023-02-28T09:45:28;99202.94;;;12.45;59.66
32456;BME280;18912;43.270;27.942;2023-02-28T09:48:01;99211.03;;;12.38;59.50
32456;BME280;18912;43.270;27.942;2023-02-28T09:50:34;99213.22;;;12.49;59.66
32456;BME280;18912;43.270;27.942;2023-02-28T09:53:06;99218.50;;;12.36;59.76
32456;BME280;18912;43.270;27.942;2023-02-28T09:55:42;99224.56;;;12.80;58.59
32456;BME280;18912;43.270;27.942;2023-02-28T09:58:33;99238.28;;;12.93;57.67
32456;BME280;18912;43.270;27.942;2023-02-28T10:01:09;99242.44;;;13.10;57.45
32456;BME280;18912;43.270;27.942;2023-02-28T10:06:26;99243.69;;;13.14;57.34
32456;BME280;18912;43.270;27.942;2023-02-28T10:11:27;99251.34;;;12.83;57.82
32456;BME280;18912;43.270;27.942;2023-02-28T10:14:13;99243.69;;;13.14;56.90
32456;BME280;18912;43.270;27.942;2023-02-28T10:16:47;99235.81;;;13.20;56.53
32456;BME280;18912;43.270;27.942;2023-02-28T10:19:33;99232.06;;;12.99;57.12
32456;BME280;18912;43.270;27.942;2023-02-28T10:27:17;99224.75;;;13.21;56.28
32456;BME280;18912;43.270;27.942;2023-02-28T10:29:46;99218.19;;;13.37;56.31
32456;BME280;18912;43.270;27.942;2023-02-28T10:32:17;99221.84;;;12.80;57.28
32456;BME280;18912;43.270;27.942;2023-02-28T10:34:42;99206.38;;;12.74;57.72
32456;BME280;18912;43.270;27.942;2023-02-28T10:37:09;99201.50;;;13.12;56.61
32456;BME280;18912;43.270;27.942;2023-02-28T10:39:44;99195.50;;;12.95;57.88
32456;BME280;18912;43.270;27.942;2023-02-28T10:42:27;99197.66;;;13.28;56.68
32456;BME280;18912;43.270;27.942;2023-02-28T10:45:06;99186.31;;;12.96;57.47
32456;BME280;18912;43.270;27.942;2023-02-28T10:47:33;99191.97;;;12.74;58.76
32456;BME280;18912;43.270;27.942;2023-02-28T10:49:59;99192.38;;;12.98;58.04
32456;BME280;18912;43.270;27.942;2023-02-28T10:52:39;99187.84;;;12.78;58.30
32456;BME280;18912;43.270;27.942;2023-02-28T10:55:25;99185.66;;;12.67;58.83
32456;BME280;18912;43.270;27.942;2023-02-28T10:57:51;99180.03;;;12.96;58.01
32456;BME280;18912;43.270;27.942;2023-02-28T11:00:23;99177.94;;;13.13;57.53
32456;BME280;18912;43.270;27.942;2023-02-28T11:02:50;99176.00;;;12.85;57.67
32456;BME280;18912;43.270;27.942;2023-02-28T11:05:29;99178.28;;;12.82;58.44
32456;BME280;18912;43.270;27.942;2023-02-28T11:08:12;99169.63;;;12.51;59.36
32456;BME280;18912;43.270;27.942;2023-02-28T11:10:38;99153.22;;;12.16;60.49
32456;BME280;18912;43.270;27.942;2023-02-28T11:13:05;99150.06;;;12.55;59.47
32456;BME280;18912;43.270;27.942;2023-02-28T11:15:33;99158.91;;;12.43;59.57
32456;BME280;18912;43.270;27.942;2023-02-28T11:18:19;99156.84;;;12.45;59.39
32456;BME280;18912;43.270;27.942;2023-02-28T11:20:51;99159.44;;;12.53;59.06
32456;BME280;18912;43.270;27.942;2023-02-28T11:23:18;99167.03;;;12.43;59.02
32456;BME280;18912;43.270;27.942;2023-02-28T11:25:51;99161.22;;;12.25;60.00
32456;BME280;18912;43.270;27.942;2023-02-28T11:28:36;99153.69;;;12.41;60.17
32456;BME280;18912;43.270;27.942;2023-02-28T11:33:41;99158.53;;;12.94;58.65
32456;BME280;18912;43.270;27.942;2023-02-28T11:38:41;99159.97;;;12.90;58.09
32456;BME280;18912;43.270;27.942;2023-02-28T11:41:17;99151.91;;;12.76;58.45
32456;BME280;18912;43.270;27.942;2023-02-28T11:46:48;99141.50;;;12.79;57.87
32456;BME280;18912;43.270;27.942;2023-02-28T11:52:02;99137.59;;;12.61;58.90
32456;BME280;18912;43.270;27.942;2023-02-28T11:57:30;99135.47;;;12.35;59.97
32456;BME280;18912;43.270;27.942;2023-02-28T12:00:03;99142.81;;;12.62;58.99
32456;BME280;18912;43.270;27.942;2023-02-28T12:11:12;99123.00;;;12.62;59.28
32456;BME280;18912;43.270;27.942;2023-02-28T12:16:35;99114.63;;;12.14;59.99
32456;BME280;18912;43.270;27.942;2023-02-28T12:25:13;99144.34;;;11.87;60.34
32456;BME280;18912;43.270;27.942;2023-02-28T12:27:46;99129.72;;;12.23;59.79
32456;BME280;18912;43.270;27.942;2023-02-28T12:32:45;99145.13;;;11.66;61.25
32456;BME280;18912;43.270;27.942;2023-02-28T12:35:16;99131.66;;;12.08;60.08
32456;BME280;18912;43.270;27.942;2023-02-28T12:37:49;99138.69;;;11.67;61.88
32456;BME280;18912;43.270;27.942;2023-02-28T12:40:20;99148.81;;;11.94;61.00
32456;BME280;18912;43.270;27.942;2023-02-28T12:42:50;99139.56;;;12.25;60.20
32456;BME280;18912;43.270;27.942;2023-02-28T12:45:24;99139.47;;;12.18;60.17
32456;BME280;18912;43.270;27.942;2023-02-28T12:47:56;99142.66;;;11.86;60.96
32456;BME280;18912;43.270;27.942;2023-02-28T12:50:22;99137.16;;;12.15;60.56
32456;BME280;18912;43.270;27.942;2023-02-28T12:53:23;99131.16;;;11.98;61.36
32456;BME280;18912;43.270;27.942;2023-02-28T13:09:31;99150.03;;;11.92;60.96
32456;BME280;18912;43.270;27.942;2023-02-28T13:11:57;99140.28;;;11.97;60.44
32456;BME280;18912;43.270;27.942;2023-02-28T13:14:26;99145.94;;;12.17;60.16
32456;BME280;18912;43.270;27.942;2023-02-28T13:19:39;99124.88;;;11.98;60.69
32456;BME280;18912;43.270;27.942;2023-02-28T13:22:18;99127.53;;;12.12;60.69
32456;BME280;18912;43.270;27.942;2023-02-28T13:24:55;99133.34;;;11.59;61.64
32456;BME280;18912;43.270;27.942;2023-02-28T13:29:53;99140.44;;;11.60;61.90
32456;BME280;18912;43.270;27.942;2023-02-28T13:39:54;99153.72;;;11.70;61.34
32456;BME280;18912;43.270;27.942;2023-02-28T13:42:48;99143.50;;;11.57;62.27
32456;BME280;18912;43.270;27.942;2023-02-28T13:45:28;99148.13;;;11.57;61.83
32456;BME280;18912;43.270;27.942;2023-02-28T13:48:25;99142.34;;;11.95;61.16
32456;BME280;18912;43.270;27.942;2023-02-28T13:50:52;99138.59;;;11.75;61.55
32456;BME280;18912;43.270;27.942;2023-02-28T13:53:54;99138.28;;;11.70;61.53
32456;BME280;18912;43.270;27.942;2023-02-28T13:56:21;99133.81;;;11.48;62.29
32456;BME280;18912;43.270;27.942;2023-02-28T13:59:01;99121.88;;;11.43;62.59
32456;BME280;18912;43.270;27.942;2023-02-28T14:01:55;99131.22;;;11.69;62.52
32456;BME280;18912;43.270;27.942;2023-02-28T14:06:54;99124.31;;;11.38;63.36
32456;BME280;18912;43.270;27.942;2023-02-28T14:09:25;99111.06;;;11.13;64.37
32456;BME280;18912;43.270;27.942;2023-02-28T14:11:53;99110.50;;;11.32;63.61
32456;BME280;18912;43.270;27.942;2023-02-28T14:17:15;99115.06;;;11.03;64.04
32456;BME280;18912;43.270;27.942;2023-02-28T14:19:45;99115.28;;;11.01;64.22
32456;BME280;18912;43.270;27.942;2023-02-28T14:27:53;99114.97;;;10.82;65.22
32456;BME280;18912;43.270;27.942;2023-02-28T14:30:40;99116.47;;;10.99;65.16
32456;BME280;18912;43.270;27.942;2023-02-28T14:36:18;99123.53;;;10.85;65.47
32456;BME280;18912;43.270;27.942;2023-02-28T14:39:06;99123.09;;;11.25;64.23
32456;BME280;18912;43.270;27.942;2023-02-28T14:41:37;99124.75;;;11.26;63.93
32456;BME280;18912;43.270;27.942;2023-02-28T14:44:20;99133.72;;;11.27;63.75
32456;BME280;18912;43.270;27.942;2023-02-28T14:46:50;99128.91;;;11.22;63.60